Pagrindinis puslapis
METAR-TAF:

METAR-TAF

Oro uostai :

Heraklionas, Graikija

platuma: 35-20N, ilguma: 025-11E, Aukštis: 37 m

Dabartinis oras

Ataskaita buvo paskelbta 38 minutes, ne 05:20 UTC
Vėjas 13 kt iš Vakarų
Temperatūra 15°C
Drėgmė 59%
Slėgis 1015 hPa
Matomumas 10 km arba daugiau
Mažai debesys ne aukštis 2000 ft

METAR: LGIR 100520Z 28013KT 9999 FEW020 15/07 Q1015 NOSIG

Laikas: 08:58 (05:58 UTC)

Prognozė

Ataskaita buvo paskelbta 58 minutes, ne 05:00 UTC
Prognozė galioja nuo 10 metu 06 UTC su 11 metu 06 UTC
Vėjas 15 kt iš Vakarų/Šiaurės Vakarų
Matomumas 10 km arba daugiau
Mažai debesys ne aukštis 2000 ft

TAF: LGIR 100500Z 1006/1106 30015KT 9999 FEW020

Orai ataskaitas ir orų prognozės (METAR, TAF).

turimą stotys yra geltonos ir raudonos taškus žemėlapyje.

Perkelti pele per norėdami pamatyti stoties vardą.

Tada spustelėkite, norėdami matyti oro stebėjimo ir prognozės.

Norėdami pakeisti žemėlapį: spustelėkite ant žalios mygtukų su juodo kryžiaus žemyn,; žalią mygtuką su brūkšneliu, jei norite nutolinti; arba žalių rodyklių gretimoms žemėlapius.


METAR-TAF: